sensor_id;sensor_type;location;lat;lon;timestamp;pressure;altitude;pressure_sealevel;temperature;humidity
73824;BME280;62154;54.914;73.444;2023-02-15T00:01:36;101720.47;;;-20.49;88.44
73824;BME280;62154;54.914;73.444;2023-02-15T00:04:05;101730.16;;;-20.42;88.50
73824;BME280;62154;54.914;73.444;2023-02-15T00:06:33;101713.38;;;-20.58;88.75
73824;BME280;62154;54.914;73.444;2023-02-15T00:09:13;101733.63;;;-20.55;88.84
73824;BME280;62154;54.914;73.444;2023-02-15T00:11:46;101738.91;;;-20.55;88.85
73824;BME280;62154;54.914;73.444;2023-02-15T00:14:24;101731.81;;;-20.59;88.33
73824;BME280;62154;54.914;73.444;2023-02-15T00:16:52;101730.94;;;-20.58;88.64
73824;BME280;62154;54.914;73.444;2023-02-15T00:19:21;101723.03;;;-20.57;88.44
73824;BME280;62154;54.914;73.444;2023-02-15T00:22:02;101732.72;;;-20.57;88.10
73824;BME280;62154;54.914;73.444;2023-02-15T00:24:30;101734.44;;;-20.61;88.29
73824;BME280;62154;54.914;73.444;2023-02-15T00:26:58;101728.25;;;-20.66;88.04
73824;BME280;62154;54.914;73.444;2023-02-15T00:29:30;101718.50;;;-20.82;88.09
73824;BME280;62154;54.914;73.444;2023-02-15T00:31:58;101726.41;;;-20.82;88.09
73824;BME280;62154;54.914;73.444;2023-02-15T00:34:27;101725.50;;;-20.85;88.12
73824;BME280;62154;54.914;73.444;2023-02-15T00:36:57;101721.09;;;-20.90;87.67
73824;BME280;62154;54.914;73.444;2023-02-15T00:39:24;101727.28;;;-20.85;87.84
73824;BME280;62154;54.914;73.444;2023-02-15T00:41:53;101725.56;;;-20.81;87.86
73824;BME280;62154;54.914;73.444;2023-02-15T00:44:21;101714.16;;;-20.79;87.76
73824;BME280;62154;54.914;73.444;2023-02-15T00:46:54;101722.13;;;-20.65;87.71
73824;BME280;62154;54.914;73.444;2023-02-15T00:49:22;101731.00;;;-20.54;87.05
73824;BME280;62154;54.914;73.444;2023-02-15T00:51:53;101717.75;;;-20.57;86.80
73824;BME280;62154;54.914;73.444;2023-02-15T00:54:21;101725.78;;;-20.41;86.94
73824;BME280;62154;54.914;73.444;2023-02-15T00:56:50;101731.13;;;-20.35;86.54
73824;BME280;62154;54.914;73.444;2023-02-15T00:59:23;101723.19;;;-20.35;86.24
73824;BME280;62154;54.914;73.444;2023-02-15T01:02:00;101724.06;;;-20.33;86.12
73824;BME280;62154;54.914;73.444;2023-02-15T01:04:29;101727.63;;;-20.28;86.16
73824;BME280;62154;54.914;73.444;2023-02-15T01:06:57;101731.19;;;-20.21;85.78
73824;BME280;62154;54.914;73.444;2023-02-15T01:09:25;101725.00;;;-20.26;85.62
73824;BME280;62154;54.914;73.444;2023-02-15T01:11:52;101719.72;;;-20.25;85.32
73824;BME280;62154;54.914;73.444;2023-02-15T01:14:30;101726.78;;;-20.24;85.16
73824;BME280;62154;54.914;73.444;2023-02-15T01:16:58;101724.97;;;-20.31;84.83
73824;BME280;62154;54.914;73.444;2023-02-15T01:19:26;101711.75;;;-20.37;84.93
73824;BME280;62154;54.914;73.444;2023-02-15T01:21:53;101724.84;;;-20.48;84.53
73824;BME280;62154;54.914;73.444;2023-02-15T01:24:21;101718.72;;;-20.52;84.50
73824;BME280;62154;54.914;73.444;2023-02-15T01:26:58;101721.31;;;-20.56;84.51
73824;BME280;62154;54.914;73.444;2023-02-15T01:29:27;101677.19;;;-20.87;84.68
73824;BME280;62154;54.914;73.444;2023-02-15T01:31:55;101723.84;;;-20.67;84.88
73824;BME280;62154;54.914;73.444;2023-02-15T01:34:33;101722.97;;;-20.67;84.85
73824;BME280;62154;54.914;73.444;2023-02-15T01:37:01;101722.13;;;-20.65;84.80
73824;BME280;62154;54.914;73.444;2023-02-15T01:39:28;101716.84;;;-20.63;84.89
73824;BME280;62154;54.914;73.444;2023-02-15T01:41:56;101719.53;;;-20.59;84.82
73824;BME280;62154;54.914;73.444;2023-02-15T01:47:17;101723.09;;;-20.50;84.43
73824;BME280;62154;54.914;73.444;2023-02-15T01:49:47;101724.91;;;-20.43;84.37
73824;BME280;62154;54.914;73.444;2023-02-15T01:52:17;101664.09;;;-20.74;84.11
73824;BME280;62154;54.914;73.444;2023-02-15T01:54:46;101729.31;;;-20.41;84.00
73824;BME280;62154;54.914;73.444;2023-02-15T01:57:19;101727.56;;;-20.40;83.87
73824;BME280;62154;54.914;73.444;2023-02-15T01:59:53;101738.94;;;-20.47;83.52
73824;BME280;62154;54.914;73.444;2023-02-15T02:02:22;101736.31;;;-20.47;83.16
73824;BME280;62154;54.914;73.444;2023-02-15T02:05:05;101731.00;;;-20.50;83.01
73824;BME280;62154;54.914;73.444;2023-02-15T02:07:38;101729.22;;;-20.55;82.77
73824;BME280;62154;54.914;73.444;2023-02-15T02:10:09;101743.25;;;-20.56;82.37
73824;BME280;62154;54.914;73.444;2023-02-15T02:12:43;101593.34;;;-21.46;82.37
73824;BME280;62154;54.914;73.444;2023-02-15T02:15:12;101742.34;;;-20.64;82.44
73824;BME280;62154;54.914;73.444;2023-02-15T02:20:26;101715.88;;;-20.81;81.72
73824;BME280;62154;54.914;73.444;2023-02-15T02:23:22;101745.75;;;-20.82;81.54
73824;BME280;62154;54.914;73.444;2023-02-15T02:38:28;101738.34;;;-21.25;81.79
73824;BME280;62154;54.914;73.444;2023-02-15T02:41:11;101741.00;;;-21.23;81.90
73824;BME280;62154;54.914;73.444;2023-02-15T02:43:58;101747.97;;;-21.27;81.90
73824;BME280;62154;54.914;73.444;2023-02-15T02:46:38;101748.03;;;-21.24;82.04
73824;BME280;62154;54.914;73.444;2023-02-15T02:49:11;101740.94;;;-21.28;82.14
73824;BME280;62154;54.914;73.444;2023-02-15T02:51:39;101738.28;;;-21.31;82.20
73824;BME280;62154;54.914;73.444;2023-02-15T02:54:08;101747.97;;;-21.27;81.79
73824;BME280;62154;54.914;73.444;2023-02-15T02:56:47;101753.19;;;-21.31;81.74
73824;BME280;62154;54.914;73.444;2023-02-15T02:59:19;101740.88;;;-21.34;81.87
73824;BME280;62154;54.914;73.444;2023-02-15T03:02:01;101758.50;;;-21.30;81.79
73824;BME280;62154;54.914;73.444;2023-02-15T03:04:39;101700.28;;;-21.61;81.47
73824;BME280;62154;54.914;73.444;2023-02-15T03:07:22;101690.53;;;-21.70;81.70
73824;BME280;62154;54.914;73.444;2023-02-15T03:10:04;101746.13;;;-21.37;81.33
73824;BME280;62154;54.914;73.444;2023-02-15T03:12:35;101756.66;;;-21.40;81.38
73824;BME280;62154;54.914;73.444;2023-02-15T03:15:12;101765.41;;;-21.41;81.38
73824;BME280;62154;54.914;73.444;2023-02-15T03:17:45;101707.25;;;-21.68;81.44
73824;BME280;62154;54.914;73.444;2023-02-15T03:20:32;101738.09;;;-21.51;81.54
73824;BME280;62154;54.914;73.444;2023-02-15T03:23:05;101749.59;;;-21.41;81.86
73824;BME280;62154;54.914;73.444;2023-02-15T03:25:39;101743.44;;;-21.45;82.02
73824;BME280;62154;54.914;73.444;2023-02-15T03:28:23;101739.03;;;-21.43;82.02
73824;BME280;62154;54.914;73.444;2023-02-15T03:31:06;101734.59;;;-21.50;81.68
73824;BME280;62154;54.914;73.444;2023-02-15T03:34:04;101738.97;;;-21.51;81.78
73824;BME280;62154;54.914;73.444;2023-02-15T03:36:47;101746.94;;;-21.43;81.92
73824;BME280;62154;54.914;73.444;2023-02-15T03:39:40;101760.16;;;-21.38;82.02
73824;BME280;62154;54.914;73.444;2023-02-15T03:44:51;101756.75;;;-21.28;82.86
73824;BME280;62154;54.914;73.444;2023-02-15T03:47:35;101750.66;;;-21.22;82.86
73824;BME280;62154;54.914;73.444;2023-02-15T03:50:35;101757.00;;;-21.03;83.24
73824;BME280;62154;54.914;73.444;2023-02-15T03:53:22;101756.22;;;-20.91;82.93
73824;BME280;62154;54.914;73.444;2023-02-15T03:55:54;101748.41;;;-20.77;82.87
73824;BME280;62154;54.914;73.444;2023-02-15T03:58:28;101735.28;;;-20.68;82.76
73824;BME280;62154;54.914;73.444;2023-02-15T04:01:18;101747.72;;;-20.52;82.72
73824;BME280;62154;54.914;73.444;2023-02-15T04:04:20;101744.19;;;-20.52;82.46
73824;BME280;62154;54.914;73.444;2023-02-15T04:06:49;101742.44;;;-20.45;82.70
73824;BME280;62154;54.914;73.444;2023-02-15T04:09:16;101749.50;;;-20.44;82.18
73824;BME280;62154;54.914;73.444;2023-02-15T04:12:05;101751.31;;;-20.39;82.16
73824;BME280;62154;54.914;73.444;2023-02-15T04:14:32;101754.00;;;-20.31;82.42
73824;BME280;62154;54.914;73.444;2023-02-15T04:17:23;101760.22;;;-20.21;82.07
73824;BME280;62154;54.914;73.444;2023-02-15T04:20:01;101714.34;;;-20.42;81.94
73824;BME280;62154;54.914;73.444;2023-02-15T04:22:46;101766.44;;;-20.07;82.20
73824;BME280;62154;54.914;73.444;2023-02-15T04:25:32;101707.31;;;-20.43;81.88
73824;BME280;62154;54.914;73.444;2023-02-15T04:28:00;101766.44;;;-20.08;82.01
73824;BME280;62154;54.914;73.444;2023-02-15T04:30:27;101754.16;;;-20.00;82.29
73824;BME280;62154;54.914;73.444;2023-02-15T04:32:59;101762.97;;;-19.96;82.08
73824;BME280;62154;54.914;73.444;2023-02-15T04:35:31;101759.38;;;-20.06;81.68
73824;BME280;62154;54.914;73.444;2023-02-15T04:38:00;101722.31;;;-20.34;81.40
73824;BME280;62154;54.914;73.444;2023-02-15T04:40:28;101769.97;;;-20.03;82.15
73824;BME280;62154;54.914;73.444;2023-02-15T04:42:55;101761.19;;;-19.97;82.03
73824;BME280;62154;54.914;73.444;2023-02-15T04:45:23;101766.50;;;-19.90;82.23
73824;BME280;62154;54.914;73.444;2023-02-15T04:47:50;101770.03;;;-19.78;82.31
73824;BME280;62154;54.914;73.444;2023-02-15T04:50:18;101764.75;;;-19.78;82.36
73824;BME280;62154;54.914;73.444;2023-02-15T04:52:46;101768.34;;;-19.67;82.86
73824;BME280;62154;54.914;73.444;2023-02-15T04:55:13;101765.72;;;-19.61;82.81
73824;BME280;62154;54.914;73.444;2023-02-15T04:57:41;101765.72;;;-19.59;82.65
73824;BME280;62154;54.914;73.444;2023-02-15T05:00:19;101763.09;;;-19.55;82.85
73824;BME280;62154;54.914;73.444;2023-02-15T05:02:47;101769.28;;;-19.49;82.86
73824;BME280;62154;54.914;73.444;2023-02-15T05:05:15;101771.09;;;-19.36;82.82
73824;BME280;62154;54.914;73.444;2023-02-15T05:07:43;101766.72;;;-19.25;83.27
73824;BME280;62154;54.914;73.444;2023-02-15T05:10:10;101734.13;;;-19.30;82.79
73824;BME280;62154;54.914;73.444;2023-02-15T05:12:39;101756.13;;;-19.20;82.45
73824;BME280;62154;54.914;73.444;2023-02-15T05:15:16;101748.19;;;-19.28;82.27
73824;BME280;62154;54.914;73.444;2023-02-15T05:17:44;101762.31;;;-19.23;82.33
73824;BME280;62154;54.914;73.444;2023-02-15T05:20:11;101764.09;;;-19.18;83.06
73824;BME280;62154;54.914;73.444;2023-02-15T05:22:39;101771.19;;;-18.96;83.33
73824;BME280;62154;54.914;73.444;2023-02-15T05:25:15;101757.94;;;-18.90;83.03
73824;BME280;62154;54.914;73.444;2023-02-15T05:28:00;101748.22;;;-18.80;82.94
73824;BME280;62154;54.914;73.444;2023-02-15T05:31:13;101746.47;;;-18.72;82.42
73824;BME280;62154;54.914;73.444;2023-02-15T05:33:46;101753.50;;;-18.64;82.44
73824;BME280;62154;54.914;73.444;2023-02-15T05:36:14;101757.03;;;-18.56;82.68
73824;BME280;62154;54.914;73.444;2023-02-15T05:38:55;101705.03;;;-18.77;82.57
73824;BME280;62154;54.914;73.444;2023-02-15T05:41:23;101746.44;;;-18.38;82.87
73824;BME280;62154;54.914;73.444;2023-02-15T05:43:55;101743.78;;;-18.42;82.45
73824;BME280;62154;54.914;73.444;2023-02-15T05:46:24;101751.75;;;-18.38;82.77
73824;BME280;62154;54.914;73.444;2023-02-15T05:48:51;101742.88;;;-18.27;83.04
73824;BME280;62154;54.914;73.444;2023-02-15T05:51:29;101748.19;;;-18.26;82.97
73824;BME280;62154;54.914;73.444;2023-02-15T05:54:06;101750.81;;;-18.23;82.85
73824;BME280;62154;54.914;73.444;2023-02-15T05:56:39;101738.47;;;-18.24;82.96
73824;BME280;62154;54.914;73.444;2023-02-15T05:59:14;101749.88;;;-17.98;83.24
73824;BME280;62154;54.914;73.444;2023-02-15T06:01:44;101742.75;;;-17.90;83.49
73824;BME280;62154;54.914;73.444;2023-02-15T06:04:12;101751.50;;;-17.76;83.11
73824;BME280;62154;54.914;73.444;2023-02-15T06:06:40;101746.22;;;-17.73;82.57
73824;BME280;62154;54.914;73.444;2023-02-15T06:09:12;101762.09;;;-17.66;82.79
73824;BME280;62154;54.914;73.444;2023-02-15T06:11:40;101755.88;;;-17.61;82.51
73824;BME280;62154;54.914;73.444;2023-02-15T06:14:07;101750.56;;;-17.58;82.72
73824;BME280;62154;54.914;73.444;2023-02-15T06:16:35;101666.91;;;-18.03;82.54
73824;BME280;62154;54.914;73.444;2023-02-15T06:19:08;101752.28;;;-17.50;82.99
73824;BME280;62154;54.914;73.444;2023-02-15T06:21:37;101737.31;;;-17.56;82.61
73824;BME280;62154;54.914;73.444;2023-02-15T06:24:09;101760.22;;;-17.47;82.85
73824;BME280;62154;54.914;73.444;2023-02-15T06:26:36;101750.47;;;-17.36;83.11
73824;BME280;62154;54.914;73.444;2023-02-15T06:29:03;101744.22;;;-17.29;83.06
73824;BME280;62154;54.914;73.444;2023-02-15T06:31:31;101747.66;;;-17.14;83.20
73824;BME280;62154;54.914;73.444;2023-02-15T06:34:04;101745.88;;;-17.11;82.54
73824;BME280;62154;54.914;73.444;2023-02-15T06:36:31;101693.94;;;-17.41;82.36
73824;BME280;62154;54.914;73.444;2023-02-15T06:38:59;101745.84;;;-17.04;82.41
73824;BME280;62154;54.914;73.444;2023-02-15T06:41:29;101743.22;;;-17.09;82.22
73824;BME280;62154;54.914;73.444;2023-02-15T06:43:56;101701.81;;;-17.27;82.29
73824;BME280;62154;54.914;73.444;2023-02-15T06:46:24;101750.22;;;-16.96;82.42
73824;BME280;62154;54.914;73.444;2023-02-15T06:48:54;101757.19;;;-16.90;82.55
73824;BME280;62154;54.914;73.444;2023-02-15T06:51:26;101766.81;;;-16.75;82.16
73824;BME280;62154;54.914;73.444;2023-02-15T06:53:54;101756.94;;;-16.59;82.77
73824;BME280;62154;54.914;73.444;2023-02-15T06:56:25;101770.94;;;-16.38;82.15
73824;BME280;62154;54.914;73.444;2023-02-15T06:58:52;101760.19;;;-16.25;81.90
73824;BME280;62154;54.914;73.444;2023-02-15T07:01:20;101760.84;;;-16.02;82.08
73824;BME280;62154;54.914;73.444;2023-02-15T07:03:57;101759.84;;;-15.90;81.37
73824;BME280;62154;54.914;73.444;2023-02-15T07:06:33;101728.03;;;-16.00;80.96
73824;BME280;62154;54.914;73.444;2023-02-15T07:09:00;101751.59;;;-15.72;80.94
73824;BME280;62154;54.914;73.444;2023-02-15T07:11:28;101759.50;;;-15.66;81.08
73824;BME280;62154;54.914;73.444;2023-02-15T07:14:25;101753.34;;;-15.68;80.51
73824;BME280;62154;54.914;73.444;2023-02-15T07:17:01;101751.47;;;-15.61;80.80
73824;BME280;62154;54.914;73.444;2023-02-15T07:19:29;101749.59;;;-15.53;80.45
73824;BME280;62154;54.914;73.444;2023-02-15T07:21:56;101749.66;;;-15.57;80.01
73824;BME280;62154;54.914;73.444;2023-02-15T07:24:24;101744.38;;;-15.61;79.73
73824;BME280;62154;54.914;73.444;2023-02-15T07:26:51;101736.44;;;-15.64;79.90
73824;BME280;62154;54.914;73.444;2023-02-15T07:29:23;101738.06;;;-15.52;79.97
73824;BME280;62154;54.914;73.444;2023-02-15T07:31:50;101744.19;;;-15.47;79.91
73824;BME280;62154;54.914;73.444;2023-02-15T07:34:27;101745.03;;;-15.43;78.97
73824;BME280;62154;54.914;73.444;2023-02-15T07:36:55;101738.84;;;-15.44;79.14
73824;BME280;62154;54.914;73.444;2023-02-15T07:39:22;101733.59;;;-15.48;78.88
73824;BME280;62154;54.914;73.444;2023-02-15T07:41:49;101726.44;;;-15.45;78.94
73824;BME280;62154;54.914;73.444;2023-02-15T07:44:23;101721.06;;;-15.42;78.84
73824;BME280;62154;54.914;73.444;2023-02-15T07:46:51;101735.03;;;-15.24;78.76
73824;BME280;62154;54.914;73.444;2023-02-15T07:49:18;101732.22;;;-15.15;78.42
73824;BME280;62154;54.914;73.444;2023-02-15T07:51:45;101727.75;;;-15.13;77.92
73824;BME280;62154;54.914;73.444;2023-02-15T07:54:22;101732.16;;;-15.10;77.79
73824;BME280;62154;54.914;73.444;2023-02-15T07:56:56;101691.72;;;-15.34;77.38
73824;BME280;62154;54.914;73.444;2023-02-15T07:59:34;101729.53;;;-15.12;77.33
73824;BME280;62154;54.914;73.444;2023-02-15T08:02:13;101740.19;;;-15.15;77.06
73824;BME280;62154;54.914;73.444;2023-02-15T08:04:40;101713.91;;;-15.36;77.24
73824;BME280;62154;54.914;73.444;2023-02-15T08:07:12;101746.34;;;-15.11;77.43
73824;BME280;62154;54.914;73.444;2023-02-15T08:09:50;101736.53;;;-15.04;77.79
73824;BME280;62154;54.914;73.444;2023-02-15T08:12:17;101745.91;;;-14.80;77.59
73824;BME280;62154;54.914;73.444;2023-02-15T08:14:44;101737.72;;;-14.69;77.66
73824;BME280;62154;54.914;73.444;2023-02-15T08:17:17;101744.56;;;-14.54;77.08
73824;BME280;62154;54.914;73.444;2023-02-15T08:19:45;101742.63;;;-14.45;76.54
73824;BME280;62154;54.914;73.444;2023-02-15T08:22:16;101736.44;;;-14.47;76.31
73824;BME280;62154;54.914;73.444;2023-02-15T08:24:48;101730.38;;;-14.55;75.68
73824;BME280;62154;54.914;73.444;2023-02-15T08:27:20;101734.00;;;-14.61;75.38
73824;BME280;62154;54.914;73.444;2023-02-15T08:29:53;101737.56;;;-14.62;75.76
73824;BME280;62154;54.914;73.444;2023-02-15T08:32:21;101729.47;;;-14.55;75.55
73824;BME280;62154;54.914;73.444;2023-02-15T08:34:48;101735.63;;;-14.52;75.13
73824;BME280;62154;54.914;73.444;2023-02-15T08:37:26;101736.63;;;-14.57;75.26
73824;BME280;62154;54.914;73.444;2023-02-15T08:39:53;101740.41;;;-14.68;74.45
73824;BME280;62154;54.914;73.444;2023-02-15T08:42:21;101745.75;;;-14.71;74.51
73824;BME280;62154;54.914;73.444;2023-02-15T08:44:48;101740.31;;;-14.65;75.16
73824;BME280;62154;54.914;73.444;2023-02-15T08:47:18;101729.97;;;-14.83;74.12
73824;BME280;62154;54.914;73.444;2023-02-15T08:49:45;101741.47;;;-14.81;74.53
73824;BME280;62154;54.914;73.444;2023-02-15T08:52:12;101707.22;;;-15.03;74.58
73824;BME280;62154;54.914;73.444;2023-02-15T08:54:39;101731.81;;;-14.88;74.88
73824;BME280;62154;54.914;73.444;2023-02-15T08:57:07;101722.94;;;-14.87;74.25
73824;BME280;62154;54.914;73.444;2023-02-15T08:59:34;101733.44;;;-14.78;74.58
73824;BME280;62154;54.914;73.444;2023-02-15T09:02:12;101619.81;;;-15.28;74.77
73824;BME280;62154;54.914;73.444;2023-02-15T09:04:40;101723.34;;;-14.61;74.16
73824;BME280;62154;54.914;73.444;2023-02-15T09:07:07;101723.34;;;-14.61;73.76
73824;BME280;62154;54.914;73.444;2023-02-15T09:09:35;101711.06;;;-14.66;73.58
73824;BME280;62154;54.914;73.444;2023-02-15T09:12:12;101713.59;;;-14.62;73.80
73824;BME280;62154;54.914;73.444;2023-02-15T09:14:39;101714.59;;;-14.66;73.42
73824;BME280;62154;54.914;73.444;2023-02-15T09:17:07;101677.66;;;-14.86;73.71
73824;BME280;62154;54.914;73.444;2023-02-15T09:19:34;101697.84;;;-14.71;73.75
73824;BME280;62154;54.914;73.444;2023-02-15T09:22:02;101672.53;;;-14.97;73.48
73824;BME280;62154;54.914;73.444;2023-02-15T09:24:32;101712.09;;;-14.75;73.53
73824;BME280;62154;54.914;73.444;2023-02-15T09:27:01;101711.38;;;-14.85;73.20
73824;BME280;62154;54.914;73.444;2023-02-15T09:29:29;101704.50;;;-15.00;73.46
73824;BME280;62154;54.914;73.444;2023-02-15T09:31:56;101716.00;;;-14.98;73.85
73824;BME280;62154;54.914;73.444;2023-02-15T09:34:23;101714.22;;;-14.96;73.73
73824;BME280;62154;54.914;73.444;2023-02-15T09:36:51;101698.44;;;-15.08;73.81
73824;BME280;62154;54.914;73.444;2023-02-15T09:39:25;101672.16;;;-15.30;73.74
73824;BME280;62154;54.914;73.444;2023-02-15T09:55:43;101729.75;;;-14.68;74.05
73824;BME280;62154;54.914;73.444;2023-02-15T10:01:36;101732.41;;;-14.68;74.61
73824;BME280;62154;54.914;73.444;2023-02-15T10:05:11;101736.81;;;-14.67;74.27
73824;BME280;62154;54.914;73.444;2023-02-15T10:07:50;101746.47;;;-14.61;74.70
73824;BME280;62154;54.914;73.444;2023-02-15T10:10:54;101745.47;;;-14.55;74.41
73824;BME280;62154;54.914;73.444;2023-02-15T10:13:39;101711.22;;;-14.74;74.54
73824;BME280;62154;54.914;73.444;2023-02-15T10:31:25;101739.47;;;-14.17;74.26
73824;BME280;62154;54.914;73.444;2023-02-15T10:34:12;101614.69;;;-14.85;74.22
73824;BME280;62154;54.914;73.444;2023-02-15T10:42:10;101710.59;;;-13.95;73.14
73824;BME280;62154;54.914;73.444;2023-02-15T10:53:35;101731.88;;;-13.91;72.43
73824;BME280;62154;54.914;73.444;2023-02-15T10:59:18;101733.91;;;-14.06;72.94
73824;BME280;62154;54.914;73.444;2023-02-15T11:02:10;101732.34;;;-14.16;73.02
73824;BME280;62154;54.914;73.444;2023-02-15T11:07:57;101727.19;;;-14.25;73.85
73824;BME280;62154;54.914;73.444;2023-02-15T11:10:33;101734.44;;;-14.34;74.02
73824;BME280;62154;54.914;73.444;2023-02-15T11:13:13;101726.88;;;-14.58;74.65
73824;BME280;62154;54.914;73.444;2023-02-15T11:15:47;101734.78;;;-14.52;74.64
73824;BME280;62154;54.914;73.444;2023-02-15T11:18:53;101742.81;;;-14.57;75.08
73824;BME280;62154;54.914;73.444;2023-02-15T11:21:42;101735.78;;;-14.60;75.55
73824;BME280;62154;54.914;73.444;2023-02-15T11:24:18;101726.09;;;-14.64;75.44
73824;BME280;62154;54.914;73.444;2023-02-15T11:27:05;101730.50;;;-14.63;75.83
73824;BME280;62154;54.914;73.444;2023-02-15T11:32:29;101723.59;;;-14.73;76.42
73824;BME280;62154;54.914;73.444;2023-02-15T11:37:49;101747.34;;;-14.62;75.99
73824;BME280;62154;54.914;73.444;2023-02-15T11:45:58;101746.69;;;-14.73;74.21
73824;BME280;62154;54.914;73.444;2023-02-15T11:48:25;101751.13;;;-14.76;73.94
73824;BME280;62154;54.914;73.444;2023-02-15T11:50:57;101693.31;;;-15.20;73.60
73824;BME280;62154;54.914;73.444;2023-02-15T11:53:31;101763.81;;;-14.91;73.61
73824;BME280;62154;54.914;73.444;2023-02-15T11:56:02;101753.31;;;-15.02;74.19
73824;BME280;62154;54.914;73.444;2023-02-15T11:58:35;101770.19;;;-15.03;73.64
73824;BME280;62154;54.914;73.444;2023-02-15T12:03:52;101718.59;;;-15.54;73.58
73824;BME280;62154;54.914;73.444;2023-02-15T12:06:47;101764.38;;;-15.32;73.59
73824;BME280;62154;54.914;73.444;2023-02-15T12:09:34;101724.03;;;-15.63;73.75
73824;BME280;62154;54.914;73.444;2023-02-15T12:14:52;101791.25;;;-15.53;74.12
73824;BME280;62154;54.914;73.444;2023-02-15T12:17:27;101776.28;;;-15.61;73.92
73824;BME280;62154;54.914;73.444;2023-02-15T12:19:57;101683.19;;;-16.26;73.87
73824;BME280;62154;54.914;73.444;2023-02-15T12:22:34;101786.19;;;-15.75;74.17
73824;BME280;62154;54.914;73.444;2023-02-15T12:25:29;101781.91;;;-15.84;74.44
73824;BME280;62154;54.914;73.444;2023-02-15T12:30:50;101737.06;;;-16.13;74.42
73824;BME280;62154;54.914;73.444;2023-02-15T12:33:36;101770.53;;;-16.00;74.87
73824;BME280;62154;54.914;73.444;2023-02-15T12:36:21;101661.41;;;-16.61;74.99
73824;BME280;62154;54.914;73.444;2023-02-15T12:39:16;101781.09;;;-15.90;75.12
73824;BME280;62154;54.914;73.444;2023-02-15T12:42:41;101781.09;;;-15.94;75.12
73824;BME280;62154;54.914;73.444;2023-02-15T12:44:35;101730.94;;;-16.23;75.04
73824;BME280;62154;54.914;73.444;2023-02-15T12:47:19;101786.53;;;-16.03;75.34
73824;BME280;62154;54.914;73.444;2023-02-15T12:50:11;101789.22;;;-16.08;75.46
73824;BME280;62154;54.914;73.444;2023-02-15T12:52:46;101779.53;;;-16.15;75.38
73824;BME280;62154;54.914;73.444;2023-02-15T12:55:23;101783.94;;;-16.11;75.80
73824;BME280;62154;54.914;73.444;2023-02-15T12:58:06;101787.53;;;-16.13;75.84
73824;BME280;62154;54.914;73.444;2023-02-15T13:00:34;101782.28;;;-16.21;76.10
73824;BME280;62154;54.914;73.444;2023-02-15T13:03:02;101792.00;;;-16.18;76.32
73824;BME280;62154;54.914;73.444;2023-02-15T13:05:32;101806.19;;;-16.21;76.40
73824;BME280;62154;54.914;73.444;2023-02-15T13:08:13;101801.84;;;-16.30;76.30
73824;BME280;62154;54.914;73.444;2023-02-15T13:11:09;101802.78;;;-16.37;76.91
73824;BME280;62154;54.914;73.444;2023-02-15T13:13:59;101810.78;;;-16.43;76.98
73824;BME280;62154;54.914;73.444;2023-02-15T13:16:36;101805.53;;;-16.49;77.49
73824;BME280;62154;54.914;73.444;2023-02-15T13:19:20;101777.38;;;-16.70;77.07
73824;BME280;62154;54.914;73.444;2023-02-15T13:21:57;101807.34;;;-16.54;77.64
73824;BME280;62154;54.914;73.444;2023-02-15T13:24:35;101773.03;;;-16.81;77.81
73824;BME280;62154;54.914;73.444;2023-02-15T13:27:19;101810.09;;;-16.68;78.19
73824;BME280;62154;54.914;73.444;2023-02-15T13:29:57;101820.69;;;-16.67;78.56
73824;BME280;62154;54.914;73.444;2023-02-15T13:32:41;101826.94;;;-16.73;78.85
73824;BME280;62154;54.914;73.444;2023-02-15T13:35:17;101828.69;;;-16.73;79.54
73824;BME280;62154;54.914;73.444;2023-02-15T13:38:28;101790.00;;;-16.99;80.10
73824;BME280;62154;54.914;73.444;2023-02-15T13:47:57;101841.97;;;-16.70;79.82
73824;BME280;62154;54.914;73.444;2023-02-15T13:53:28;101842.81;;;-16.66;79.62
73824;BME280;62154;54.914;73.444;2023-02-15T14:00:02;101849.00;;;-16.66;79.63
73824;BME280;62154;54.914;73.444;2023-02-15T14:05:11;101858.78;;;-16.73;79.86
73824;BME280;62154;54.914;73.444;2023-02-15T14:21:57;101860.53;;;-16.65;79.90
73824;BME280;62154;54.914;73.444;2023-02-15T14:24:42;101852.53;;;-16.64;79.77
73824;BME280;62154;54.914;73.444;2023-02-15T14:30:25;101854.28;;;-16.61;79.83
73824;BME280;62154;54.914;73.444;2023-02-15T14:33:08;101864.91;;;-16.63;79.59
73824;BME280;62154;54.914;73.444;2023-02-15T14:35:40;101866.72;;;-16.68;79.83
73824;BME280;62154;54.914;73.444;2023-02-15T14:41:12;101833.28;;;-16.91;79.75
73824;BME280;62154;54.914;73.444;2023-02-15T14:49:35;101867.63;;;-16.72;80.12
73824;BME280;62154;54.914;73.444;2023-02-15T14:52:13;101840.38;;;-16.94;80.21
73824;BME280;62154;54.914;73.444;2023-02-15T15:00:02;101879.06;;;-16.67;80.15
73824;BME280;62154;54.914;73.444;2023-02-15T15:02:48;101869.38;;;-16.66;80.32
73824;BME280;62154;54.914;73.444;2023-02-15T15:05:53;101871.16;;;-16.71;80.26
73824;BME280;62154;54.914;73.444;2023-02-15T15:08:36;101760.16;;;-17.36;79.89
73824;BME280;62154;54.914;73.444;2023-02-15T15:14:03;101864.13;;;-16.79;80.34
73824;BME280;62154;54.914;73.444;2023-02-15T15:19:12;101855.34;;;-16.85;80.30
73824;BME280;62154;54.914;73.444;2023-02-15T15:22:06;101832.50;;;-17.10;80.07
73824;BME280;62154;54.914;73.444;2023-02-15T15:24:45;101882.72;;;-16.83;79.96
73824;BME280;62154;54.914;73.444;2023-02-15T15:28:11;101876.63;;;-16.96;80.35
73824;BME280;62154;54.914;73.444;2023-02-15T15:33:25;101877.56;;;-17.02;80.28
73824;BME280;62154;54.914;73.444;2023-02-15T15:50:39;101897.03;;;-17.09;80.28
73824;BME280;62154;54.914;73.444;2023-02-15T15:53:20;101887.31;;;-17.07;80.36